ADDS METAR Data INFO
IDs: Format: Raw Decoded Include TAF

Data at: 2328 UTC 19 Oct 2017

KABI 192252Z 14011KT 10SM CLR 24/09 A3003 RMK AO2 SLP149 T02440089
KABI 192152Z 15011KT 10SM CLR 26/11 A3004 RMK AO2 SLP151 T02560111
KABI 192052Z 15013KT 10SM CLR 24/10 A3005 RMK AO2 SLP156 T02440100 56023
KABI 191952Z 15012KT 10SM CLR 24/10 A3007 RMK AO2 SLP162 T02390100
KABI 191852Z 16014KT 10SM CLR 24/11 A3010 RMK AO2 SLP173 T02390111
KABI 191752Z 17013KT 10SM CLR 24/12 A3012 RMK AO2 SLP180 T02440117 10244 20150 58008
KABI 191652Z 19014G19KT 10SM CLR 23/12 A3014 RMK AO2 SLP186 T02280117
KABI 191552Z 17011KT 10SM CLR 21/12 A3015 RMK AO2 SLP189 T02110117
KABI 191452Z 17009KT 10SM CLR 19/12 A3015 RMK AO2 SLP191 T01890122 53020
KABI 191352Z 18012KT 10SM CLR 16/12 A3012 RMK AO2 SLP182 T01610122
KABI 191252Z 17011KT 10SM CLR 16/12 A3010 RMK AO2 SLP176 T01560117
KABI 191152Z 18010G16KT 10SM CLR 16/11 A3009 RMK AO2 SLP170 T01560106 10189 20156 53006
KABI 191052Z 18012KT 10SM CLR 17/09 A3008 RMK AO2 SLP163 T01670089
KABI 190952Z 18013G21KT 10SM CLR 17/08 A3006 RMK AO2 SLP158 T01720078
KABI 190852Z 18012KT 10SM CLR 17/08 A3007 RMK AO2 SLP159 T01720078 58006
KABI 190752Z 18011KT 10SM CLR 17/08 A3008 RMK AO2 SLP164 T01720078
KABI 190652Z 17010G18KT 10SM CLR 18/07 A3009 RMK AO2 SLP166 T01780067
KABI 190552Z 18012KT 10SM CLR 19/06 A3009 RMK AO2 SLP165 T01890061 10228 20189 402890122 51007
KABI 190452Z 17011KT 10SM CLR 20/06 A3008 RMK AO2 SLP165 T02000056
KABI 190352Z 16011KT 10SM CLR 19/04 A3008 RMK AO2 SLP166 T01940044
KABI 190252Z 15013KT 10SM CLR 20/04 A3006 RMK AO2 SLP162 T02000044 51009
KABI 190152Z 16009KT 10SM CLR 20/05 A3006 RMK AO2 SLP162 T02000050
KABI 190052Z 14008KT 10SM CLR 21/05 A3005 RMK AO2 SLP160 T02060050
KABI 182352Z 15008KT 10SM CLR 23/04 A3003 RMK AO2 SLP154 T02330044 10289 20233 55002
KABI 182252Z 16013KT 10SM CLR 27/05 A3003 RMK AO2 SLP149 T02720050
KABI 182152Z 18015KT 10SM CLR 28/04 A3003 RMK AO2 SLP149 T02830039
KABI 182052Z 17015G23KT 10SM CLR 28/03 A3004 RMK AO2 SLP153 T02780033 56024
KABI 181952Z 18010G20KT 10SM CLR 28/04 A3006 RMK AO2 SLP158 T02830039
KABI 181852Z 19016KT 10SM CLR 26/04 A3009 RMK AO2 SLP169 T02610044
KABI 181752Z 18013KT 10SM CLR 25/05 A3012 RMK AO2 SLP179 T02500050 10250 20128 58003
KABI 181652Z 18013KT 10SM CLR 23/06 A3013 RMK AO2 SLP184 T02280061
KABI 181552Z 20013KT 10SM CLR 20/07 A3014 RMK AO2 SLP189 T02000072
KABI 181452Z 19011KT 10SM CLR 18/07 A3013 RMK AO2 SLP186 T01780067 52013
KABI 181352Z 18007KT 10SM CLR 16/06 A3011 RMK AO2 SLP184 T01560061
KABI 181252Z 17006KT 10SM CLR 13/06 A3010 RMK AO2 SLP180 T01330056
KABI 181152Z 17007KT 10SM CLR 13/06 A3009 RMK AO2 SLP172 T01280056 10161 20122 55003